sensor_id;sensor_type;location;lat;lon;timestamp;P1;durP1;ratioP1;P2;durP2;ratioP2
30127;SDS011;16942;53.196;6.592;2023-01-19T00:01:10;4.73;;;3.17;;
30127;SDS011;16942;53.196;6.592;2023-01-19T00:03:36;3.63;;;2.70;;
30127;SDS011;16942;53.196;6.592;2023-01-19T00:06:05;5.60;;;2.70;;
30127;SDS011;16942;53.196;6.592;2023-01-19T00:08:31;6.53;;;2.80;;
30127;SDS011;16942;53.196;6.592;2023-01-19T00:10:58;8.10;;;2.40;;
30127;SDS011;16942;53.196;6.592;2023-01-19T00:13:24;5.60;;;2.67;;
30127;SDS011;16942;53.196;6.592;2023-01-19T00:15:50;4.67;;;2.57;;
30127;SDS011;16942;53.196;6.592;2023-01-19T00:18:16;3.57;;;2.60;;
30127;SDS011;16942;53.196;6.592;2023-01-19T00:20:44;5.90;;;2.70;;
30127;SDS011;16942;53.196;6.592;2023-01-19T00:23:10;5.30;;;2.63;;
30127;SDS011;16942;53.196;6.592;2023-01-19T00:25:36;7.10;;;2.87;;
30127;SDS011;16942;53.196;6.592;2023-01-19T00:28:06;3.53;;;2.70;;
30127;SDS011;16942;53.196;6.592;2023-01-19T00:30:32;4.50;;;2.63;;
30127;SDS011;16942;53.196;6.592;2023-01-19T00:32:58;5.93;;;3.13;;
30127;SDS011;16942;53.196;6.592;2023-01-19T00:35:24;6.03;;;2.67;;
30127;SDS011;16942;53.196;6.592;2023-01-19T00:37:50;5.67;;;2.73;;
30127;SDS011;16942;53.196;6.592;2023-01-19T00:40:16;9.00;;;2.93;;
30127;SDS011;16942;53.196;6.592;2023-01-19T00:42:42;4.87;;;3.60;;
30127;SDS011;16942;53.196;6.592;2023-01-19T00:45:10;8.20;;;2.93;;
30127;SDS011;16942;53.196;6.592;2023-01-19T00:47:36;2.87;;;2.57;;
30127;SDS011;16942;53.196;6.592;2023-01-19T00:50:03;4.53;;;2.67;;
30127;SDS011;16942;53.196;6.592;2023-01-19T00:52:29;3.23;;;2.20;;
30127;SDS011;16942;53.196;6.592;2023-01-19T00:54:55;5.93;;;3.00;;
30127;SDS011;16942;53.196;6.592;2023-01-19T00:57:21;6.57;;;2.90;;
30127;SDS011;16942;53.196;6.592;2023-01-19T00:59:47;5.53;;;2.60;;
30127;SDS011;16942;53.196;6.592;2023-01-19T01:02:13;7.13;;;2.70;;
30127;SDS011;16942;53.196;6.592;2023-01-19T01:04:39;3.97;;;2.40;;
30127;SDS011;16942;53.196;6.592;2023-01-19T01:07:05;7.60;;;3.17;;
30127;SDS011;16942;53.196;6.592;2023-01-19T01:09:31;4.47;;;2.07;;
30127;SDS011;16942;53.196;6.592;2023-01-19T01:11:57;4.87;;;1.90;;
30127;SDS011;16942;53.196;6.592;2023-01-19T01:14:23;5.23;;;2.23;;
30127;SDS011;16942;53.196;6.592;2023-01-19T01:16:49;4.10;;;1.90;;
30127;SDS011;16942;53.196;6.592;2023-01-19T01:19:15;2.70;;;1.77;;
30127;SDS011;16942;53.196;6.592;2023-01-19T01:21:41;2.77;;;1.10;;
30127;SDS011;16942;53.196;6.592;2023-01-19T01:24:08;5.80;;;1.60;;
30127;SDS011;16942;53.196;6.592;2023-01-19T01:26:34;4.73;;;1.00;;
30127;SDS011;16942;53.196;6.592;2023-01-19T01:29:00;4.57;;;1.10;;
30127;SDS011;16942;53.196;6.592;2023-01-19T01:31:26;3.80;;;1.40;;
30127;SDS011;16942;53.196;6.592;2023-01-19T01:33:52;5.60;;;1.10;;
30127;SDS011;16942;53.196;6.592;2023-01-19T01:36:18;3.53;;;0.80;;
30127;SDS011;16942;53.196;6.592;2023-01-19T01:38:44;3.77;;;1.13;;
30127;SDS011;16942;53.196;6.592;2023-01-19T01:41:11;1.30;;;0.80;;
30127;SDS011;16942;53.196;6.592;2023-01-19T01:43:41;2.00;;;0.83;;
30127;SDS011;16942;53.196;6.592;2023-01-19T01:46:07;2.57;;;0.80;;
30127;SDS011;16942;53.196;6.592;2023-01-19T01:48:33;5.20;;;1.17;;
30127;SDS011;16942;53.196;6.592;2023-01-19T01:53:46;5.57;;;1.43;;
30127;SDS011;16942;53.196;6.592;2023-01-19T01:56:14;2.23;;;1.67;;
30127;SDS011;16942;53.196;6.592;2023-01-19T01:58:41;2.97;;;2.03;;
30127;SDS011;16942;53.196;6.592;2023-01-19T02:01:07;3.40;;;2.40;;
30127;SDS011;16942;53.196;6.592;2023-01-19T02:03:52;4.33;;;2.20;;
30127;SDS011;16942;53.196;6.592;2023-01-19T02:06:18;3.27;;;2.13;;
30127;SDS011;16942;53.196;6.592;2023-01-19T02:08:47;4.50;;;2.50;;
30127;SDS011;16942;53.196;6.592;2023-01-19T02:11:33;3.43;;;2.33;;
30127;SDS011;16942;53.196;6.592;2023-01-19T02:14:19;4.23;;;2.50;;
30127;SDS011;16942;53.196;6.592;2023-01-19T02:16:45;3.10;;;2.70;;
30127;SDS011;16942;53.196;6.592;2023-01-19T02:19:12;5.87;;;3.03;;
30127;SDS011;16942;53.196;6.592;2023-01-19T02:24:14;4.43;;;2.97;;
30127;SDS011;16942;53.196;6.592;2023-01-19T02:26:43;5.67;;;3.27;;
30127;SDS011;16942;53.196;6.592;2023-01-19T02:29:12;3.57;;;3.17;;
30127;SDS011;16942;53.196;6.592;2023-01-19T02:31:39;6.90;;;3.30;;
30127;SDS011;16942;53.196;6.592;2023-01-19T02:34:09;5.20;;;3.43;;
30127;SDS011;16942;53.196;6.592;2023-01-19T02:36:41;5.03;;;3.23;;
30127;SDS011;16942;53.196;6.592;2023-01-19T02:39:09;6.23;;;3.37;;
30127;SDS011;16942;53.196;6.592;2023-01-19T02:41:40;5.10;;;3.30;;
30127;SDS011;16942;53.196;6.592;2023-01-19T02:44:07;9.03;;;3.87;;
30127;SDS011;16942;53.196;6.592;2023-01-19T02:46:34;5.57;;;3.33;;
30127;SDS011;16942;53.196;6.592;2023-01-19T02:49:00;6.67;;;3.03;;
30127;SDS011;16942;53.196;6.592;2023-01-19T02:51:26;4.07;;;2.77;;
30127;SDS011;16942;53.196;6.592;2023-01-19T02:56:38;3.77;;;2.57;;
30127;SDS011;16942;53.196;6.592;2023-01-19T03:02:09;7.87;;;2.90;;
30127;SDS011;16942;53.196;6.592;2023-01-19T03:07:10;4.00;;;2.70;;
30127;SDS011;16942;53.196;6.592;2023-01-19T03:09:48;6.17;;;2.73;;
30127;SDS011;16942;53.196;6.592;2023-01-19T03:12:30;3.40;;;2.87;;
30127;SDS011;16942;53.196;6.592;2023-01-19T03:15:03;4.63;;;2.97;;
30127;SDS011;16942;53.196;6.592;2023-01-19T03:17:33;4.27;;;2.70;;
30127;SDS011;16942;53.196;6.592;2023-01-19T03:19:59;7.07;;;3.10;;
30127;SDS011;16942;53.196;6.592;2023-01-19T03:22:27;4.87;;;2.97;;
30127;SDS011;16942;53.196;6.592;2023-01-19T03:24:54;4.90;;;3.20;;
30127;SDS011;16942;53.196;6.592;2023-01-19T03:27:24;4.80;;;3.83;;
30127;SDS011;16942;53.196;6.592;2023-01-19T03:29:54;4.57;;;3.13;;
30127;SDS011;16942;53.196;6.592;2023-01-19T03:32:22;4.23;;;3.00;;
30127;SDS011;16942;53.196;6.592;2023-01-19T03:34:53;7.23;;;3.17;;
30127;SDS011;16942;53.196;6.592;2023-01-19T03:37:20;3.83;;;3.00;;
30127;SDS011;16942;53.196;6.592;2023-01-19T03:39:47;7.07;;;3.40;;
30127;SDS011;16942;53.196;6.592;2023-01-19T03:42:13;4.97;;;3.30;;
30127;SDS011;16942;53.196;6.592;2023-01-19T03:44:40;4.83;;;3.50;;
30127;SDS011;16942;53.196;6.592;2023-01-19T03:47:07;5.83;;;3.43;;
30127;SDS011;16942;53.196;6.592;2023-01-19T03:49:35;6.00;;;3.70;;
30127;SDS011;16942;53.196;6.592;2023-01-19T03:52:02;6.53;;;3.67;;
30127;SDS011;16942;53.196;6.592;2023-01-19T03:54:28;8.63;;;3.53;;
30127;SDS011;16942;53.196;6.592;2023-01-19T03:56:54;4.83;;;3.17;;
30127;SDS011;16942;53.196;6.592;2023-01-19T03:59:20;9.23;;;3.50;;
30127;SDS011;16942;53.196;6.592;2023-01-19T04:01:46;7.80;;;3.70;;
30127;SDS011;16942;53.196;6.592;2023-01-19T04:04:13;4.93;;;3.53;;
30127;SDS011;16942;53.196;6.592;2023-01-19T04:06:39;8.13;;;3.63;;
30127;SDS011;16942;53.196;6.592;2023-01-19T04:09:05;7.20;;;3.87;;
30127;SDS011;16942;53.196;6.592;2023-01-19T04:11:32;7.87;;;3.70;;
30127;SDS011;16942;53.196;6.592;2023-01-19T04:13:58;6.57;;;3.70;;
30127;SDS011;16942;53.196;6.592;2023-01-19T04:16:24;5.50;;;3.50;;
30127;SDS011;16942;53.196;6.592;2023-01-19T04:18:50;8.13;;;3.93;;
30127;SDS011;16942;53.196;6.592;2023-01-19T04:21:17;5.53;;;3.27;;
30127;SDS011;16942;53.196;6.592;2023-01-19T04:23:44;11.00;;;3.93;;
30127;SDS011;16942;53.196;6.592;2023-01-19T04:26:10;6.83;;;3.47;;
30127;SDS011;16942;53.196;6.592;2023-01-19T04:28:37;5.03;;;3.20;;
30127;SDS011;16942;53.196;6.592;2023-01-19T04:31:03;5.70;;;3.50;;
30127;SDS011;16942;53.196;6.592;2023-01-19T04:33:30;4.60;;;3.17;;
30127;SDS011;16942;53.196;6.592;2023-01-19T04:35:56;7.90;;;3.53;;
30127;SDS011;16942;53.196;6.592;2023-01-19T04:38:25;6.87;;;3.73;;
30127;SDS011;16942;53.196;6.592;2023-01-19T04:40:52;7.80;;;4.07;;
30127;SDS011;16942;53.196;6.592;2023-01-19T04:43:19;7.03;;;4.10;;
30127;SDS011;16942;53.196;6.592;2023-01-19T04:45:45;9.07;;;4.13;;
30127;SDS011;16942;53.196;6.592;2023-01-19T04:48:11;6.87;;;3.77;;
30127;SDS011;16942;53.196;6.592;2023-01-19T04:50:38;7.13;;;3.90;;
30127;SDS011;16942;53.196;6.592;2023-01-19T04:53:05;4.53;;;3.40;;
30127;SDS011;16942;53.196;6.592;2023-01-19T04:55:31;7.03;;;3.40;;
30127;SDS011;16942;53.196;6.592;2023-01-19T04:57:57;5.33;;;3.47;;
30127;SDS011;16942;53.196;6.592;2023-01-19T05:00:23;5.50;;;3.47;;
30127;SDS011;16942;53.196;6.592;2023-01-19T05:02:50;5.27;;;3.47;;
30127;SDS011;16942;53.196;6.592;2023-01-19T05:05:16;4.67;;;2.80;;
30127;SDS011;16942;53.196;6.592;2023-01-19T05:07:42;5.17;;;3.87;;
30127;SDS011;16942;53.196;6.592;2023-01-19T05:10:10;8.20;;;3.43;;
30127;SDS011;16942;53.196;6.592;2023-01-19T05:12:36;6.90;;;2.90;;
30127;SDS011;16942;53.196;6.592;2023-01-19T05:15:03;7.30;;;3.00;;
30127;SDS011;16942;53.196;6.592;2023-01-19T05:17:31;6.33;;;2.87;;
30127;SDS011;16942;53.196;6.592;2023-01-19T05:19:58;4.57;;;2.67;;
30127;SDS011;16942;53.196;6.592;2023-01-19T05:22:24;3.63;;;2.43;;
30127;SDS011;16942;53.196;6.592;2023-01-19T05:24:50;4.90;;;2.47;;
30127;SDS011;16942;53.196;6.592;2023-01-19T05:27:16;4.10;;;2.43;;
30127;SDS011;16942;53.196;6.592;2023-01-19T05:29:42;7.27;;;2.53;;
30127;SDS011;16942;53.196;6.592;2023-01-19T05:32:08;4.13;;;2.30;;
30127;SDS011;16942;53.196;6.592;2023-01-19T05:34:34;2.73;;;1.80;;
30127;SDS011;16942;53.196;6.592;2023-01-19T05:37:00;10.77;;;2.13;;
30127;SDS011;16942;53.196;6.592;2023-01-19T05:39:27;3.97;;;1.73;;
30127;SDS011;16942;53.196;6.592;2023-01-19T05:41:54;5.63;;;1.60;;
30127;SDS011;16942;53.196;6.592;2023-01-19T05:44:20;4.10;;;1.57;;
30127;SDS011;16942;53.196;6.592;2023-01-19T05:46:47;6.53;;;1.33;;
30127;SDS011;16942;53.196;6.592;2023-01-19T05:49:13;2.50;;;1.10;;
30127;SDS011;16942;53.196;6.592;2023-01-19T05:51:39;4.20;;;1.90;;
30127;SDS011;16942;53.196;6.592;2023-01-19T05:54:10;5.03;;;1.47;;
30127;SDS011;16942;53.196;6.592;2023-01-19T05:56:36;5.27;;;1.10;;
30127;SDS011;16942;53.196;6.592;2023-01-19T05:59:03;4.83;;;1.37;;
30127;SDS011;16942;53.196;6.592;2023-01-19T06:01:29;2.00;;;0.93;;
30127;SDS011;16942;53.196;6.592;2023-01-19T06:03:55;2.93;;;1.00;;
30127;SDS011;16942;53.196;6.592;2023-01-19T06:06:21;4.50;;;1.00;;
30127;SDS011;16942;53.196;6.592;2023-01-19T06:08:47;6.40;;;1.10;;
30127;SDS011;16942;53.196;6.592;2023-01-19T06:11:13;3.97;;;1.07;;
30127;SDS011;16942;53.196;6.592;2023-01-19T06:13:39;4.43;;;1.53;;
30127;SDS011;16942;53.196;6.592;2023-01-19T06:16:06;2.97;;;0.83;;
30127;SDS011;16942;53.196;6.592;2023-01-19T06:18:32;3.10;;;1.23;;
30127;SDS011;16942;53.196;6.592;2023-01-19T06:21:01;3.10;;;0.80;;
30127;SDS011;16942;53.196;6.592;2023-01-19T06:23:31;4.23;;;0.80;;
30127;SDS011;16942;53.196;6.592;2023-01-19T06:25:57;0.97;;;0.63;;
30127;SDS011;16942;53.196;6.592;2023-01-19T06:28:23;1.63;;;0.70;;
30127;SDS011;16942;53.196;6.592;2023-01-19T06:30:49;5.00;;;0.90;;
30127;SDS011;16942;53.196;6.592;2023-01-19T06:33:16;2.67;;;0.90;;
30127;SDS011;16942;53.196;6.592;2023-01-19T06:35:45;4.73;;;0.90;;
30127;SDS011;16942;53.196;6.592;2023-01-19T06:38:11;6.87;;;1.03;;
30127;SDS011;16942;53.196;6.592;2023-01-19T06:40:38;10.50;;;1.73;;
30127;SDS011;16942;53.196;6.592;2023-01-19T06:43:05;3.03;;;1.00;;
30127;SDS011;16942;53.196;6.592;2023-01-19T06:45:31;3.67;;;0.80;;
30127;SDS011;16942;53.196;6.592;2023-01-19T06:47:57;7.20;;;1.47;;
30127;SDS011;16942;53.196;6.592;2023-01-19T06:50:23;7.93;;;1.17;;
30127;SDS011;16942;53.196;6.592;2023-01-19T06:52:49;4.40;;;1.20;;
30127;SDS011;16942;53.196;6.592;2023-01-19T06:55:15;5.33;;;1.27;;
30127;SDS011;16942;53.196;6.592;2023-01-19T06:57:42;6.77;;;1.97;;
30127;SDS011;16942;53.196;6.592;2023-01-19T07:00:09;5.27;;;1.30;;
30127;SDS011;16942;53.196;6.592;2023-01-19T07:02:36;5.73;;;1.37;;
30127;SDS011;16942;53.196;6.592;2023-01-19T07:05:02;5.80;;;1.30;;
30127;SDS011;16942;53.196;6.592;2023-01-19T07:07:30;11.07;;;1.50;;
30127;SDS011;16942;53.196;6.592;2023-01-19T07:09:56;10.27;;;1.50;;
30127;SDS011;16942;53.196;6.592;2023-01-19T07:12:22;11.10;;;1.40;;
30127;SDS011;16942;53.196;6.592;2023-01-19T07:14:48;3.63;;;1.00;;
30127;SDS011;16942;53.196;6.592;2023-01-19T07:17:15;5.10;;;1.10;;
30127;SDS011;16942;53.196;6.592;2023-01-19T07:19:41;7.50;;;1.43;;
30127;SDS011;16942;53.196;6.592;2023-01-19T07:22:07;2.10;;;1.00;;
30127;SDS011;16942;53.196;6.592;2023-01-19T07:24:33;6.83;;;1.03;;
30127;SDS011;16942;53.196;6.592;2023-01-19T07:26:59;10.67;;;1.67;;
30127;SDS011;16942;53.196;6.592;2023-01-19T07:29:25;7.77;;;1.10;;
30127;SDS011;16942;53.196;6.592;2023-01-19T07:31:51;9.60;;;1.90;;
30127;SDS011;16942;53.196;6.592;2023-01-19T07:34:20;3.83;;;1.20;;
30127;SDS011;16942;53.196;6.592;2023-01-19T07:36:47;11.07;;;1.37;;
30127;SDS011;16942;53.196;6.592;2023-01-19T07:39:13;6.27;;;1.30;;
30127;SDS011;16942;53.196;6.592;2023-01-19T07:41:39;4.53;;;1.07;;
30127;SDS011;16942;53.196;6.592;2023-01-19T07:44:05;7.97;;;1.70;;
30127;SDS011;16942;53.196;6.592;2023-01-19T07:46:32;11.27;;;1.20;;
30127;SDS011;16942;53.196;6.592;2023-01-19T07:48:58;11.57;;;2.00;;
30127;SDS011;16942;53.196;6.592;2023-01-19T07:51:24;11.47;;;1.40;;
30127;SDS011;16942;53.196;6.592;2023-01-19T07:53:51;20.13;;;1.93;;
30127;SDS011;16942;53.196;6.592;2023-01-19T07:56:17;10.67;;;2.10;;
30127;SDS011;16942;53.196;6.592;2023-01-19T07:58:43;9.57;;;1.73;;
30127;SDS011;16942;53.196;6.592;2023-01-19T08:01:11;9.07;;;2.73;;
30127;SDS011;16942;53.196;6.592;2023-01-19T08:03:38;17.73;;;1.70;;
30127;SDS011;16942;53.196;6.592;2023-01-19T08:06:04;11.53;;;2.00;;
30127;SDS011;16942;53.196;6.592;2023-01-19T08:08:30;5.47;;;1.30;;
30127;SDS011;16942;53.196;6.592;2023-01-19T08:10:56;10.93;;;1.47;;
30127;SDS011;16942;53.196;6.592;2023-01-19T08:13:23;11.33;;;1.77;;
30127;SDS011;16942;53.196;6.592;2023-01-19T08:15:49;4.97;;;1.40;;
30127;SDS011;16942;53.196;6.592;2023-01-19T08:18:15;8.43;;;1.30;;
30127;SDS011;16942;53.196;6.592;2023-01-19T08:20:42;8.33;;;1.10;;
30127;SDS011;16942;53.196;6.592;2023-01-19T08:23:08;8.23;;;1.70;;
30127;SDS011;16942;53.196;6.592;2023-01-19T08:25:39;9.13;;;1.40;;
30127;SDS011;16942;53.196;6.592;2023-01-19T08:28:09;9.37;;;1.57;;
30127;SDS011;16942;53.196;6.592;2023-01-19T08:30:35;9.60;;;2.07;;
30127;SDS011;16942;53.196;6.592;2023-01-19T08:33:02;12.73;;;1.60;;
30127;SDS011;16942;53.196;6.592;2023-01-19T08:35:29;10.90;;;1.23;;
30127;SDS011;16942;53.196;6.592;2023-01-19T08:37:55;7.97;;;1.50;;
30127;SDS011;16942;53.196;6.592;2023-01-19T08:40:25;16.30;;;1.73;;
30127;SDS011;16942;53.196;6.592;2023-01-19T08:42:51;6.63;;;1.70;;
30127;SDS011;16942;53.196;6.592;2023-01-19T08:45:17;8.97;;;1.90;;
30127;SDS011;16942;53.196;6.592;2023-01-19T08:47:43;8.47;;;1.70;;
30127;SDS011;16942;53.196;6.592;2023-01-19T08:50:09;14.00;;;3.13;;
30127;SDS011;16942;53.196;6.592;2023-01-19T08:52:35;14.77;;;1.60;;
30127;SDS011;16942;53.196;6.592;2023-01-19T08:55:01;7.13;;;1.70;;
30127;SDS011;16942;53.196;6.592;2023-01-19T08:57:27;14.87;;;1.97;;
30127;SDS011;16942;53.196;6.592;2023-01-19T08:59:53;13.67;;;1.60;;
30127;SDS011;16942;53.196;6.592;2023-01-19T09:02:19;11.07;;;2.00;;
30127;SDS011;16942;53.196;6.592;2023-01-19T09:04:45;11.37;;;1.47;;
30127;SDS011;16942;53.196;6.592;2023-01-19T09:07:11;17.33;;;2.50;;
30127;SDS011;16942;53.196;6.592;2023-01-19T09:09:37;13.80;;;1.80;;
30127;SDS011;16942;53.196;6.592;2023-01-19T09:12:07;7.87;;;1.67;;
30127;SDS011;16942;53.196;6.592;2023-01-19T09:14:33;12.90;;;1.77;;
30127;SDS011;16942;53.196;6.592;2023-01-19T09:16:59;13.27;;;1.60;;
30127;SDS011;16942;53.196;6.592;2023-01-19T09:19:25;6.90;;;1.30;;
30127;SDS011;16942;53.196;6.592;2023-01-19T09:21:52;18.40;;;2.00;;
30127;SDS011;16942;53.196;6.592;2023-01-19T09:24:18;15.70;;;2.47;;
30127;SDS011;16942;53.196;6.592;2023-01-19T09:26:44;9.63;;;1.90;;
30127;SDS011;16942;53.196;6.592;2023-01-19T09:29:10;15.10;;;1.60;;
30127;SDS011;16942;53.196;6.592;2023-01-19T09:31:36;11.13;;;1.60;;
30127;SDS011;16942;53.196;6.592;2023-01-19T09:34:04;10.30;;;2.30;;
30127;SDS011;16942;53.196;6.592;2023-01-19T09:36:30;5.83;;;1.90;;
30127;SDS011;16942;53.196;6.592;2023-01-19T09:38:56;6.60;;;1.30;;
30127;SDS011;16942;53.196;6.592;2023-01-19T09:41:22;10.47;;;1.67;;
30127;SDS011;16942;53.196;6.592;2023-01-19T09:43:51;13.00;;;1.43;;
30127;SDS011;16942;53.196;6.592;2023-01-19T09:48:55;11.53;;;2.10;;
30127;SDS011;16942;53.196;6.592;2023-01-19T09:51:23;13.67;;;1.63;;
30127;SDS011;16942;53.196;6.592;2023-01-19T09:53:51;8.73;;;1.33;;
30127;SDS011;16942;53.196;6.592;2023-01-19T09:56:19;10.33;;;1.30;;
30127;SDS011;16942;53.196;6.592;2023-01-19T09:58:46;8.07;;;1.50;;
30127;SDS011;16942;53.196;6.592;2023-01-19T10:01:32;8.73;;;1.50;;
30127;SDS011;16942;53.196;6.592;2023-01-19T10:06:45;8.50;;;1.63;;
30127;SDS011;16942;53.196;6.592;2023-01-19T10:09:21;9.83;;;1.60;;
30127;SDS011;16942;53.196;6.592;2023-01-19T10:12:50;10.20;;;1.40;;
30127;SDS011;16942;53.196;6.592;2023-01-19T10:14:47;5.70;;;1.20;;
30127;SDS011;16942;53.196;6.592;2023-01-19T10:19:44;9.83;;;1.37;;
30127;SDS011;16942;53.196;6.592;2023-01-19T10:24:41;9.77;;;1.50;;
30127;SDS011;16942;53.196;6.592;2023-01-19T10:27:13;8.93;;;1.30;;
30127;SDS011;16942;53.196;6.592;2023-01-19T10:29:41;12.87;;;2.43;;
30127;SDS011;16942;53.196;6.592;2023-01-19T10:34:34;6.13;;;1.30;;
30127;SDS011;16942;53.196;6.592;2023-01-19T10:37:04;11.90;;;1.47;;
30127;SDS011;16942;53.196;6.592;2023-01-19T10:39:30;10.73;;;1.40;;
30127;SDS011;16942;53.196;6.592;2023-01-19T10:41:56;14.77;;;2.53;;
30127;SDS011;16942;53.196;6.592;2023-01-19T10:44:24;5.30;;;1.33;;
30127;SDS011;16942;53.196;6.592;2023-01-19T10:46:51;6.97;;;1.40;;
30127;SDS011;16942;53.196;6.592;2023-01-19T10:51:47;14.20;;;1.87;;
30127;SDS011;16942;53.196;6.592;2023-01-19T10:54:13;11.47;;;2.00;;
30127;SDS011;16942;53.196;6.592;2023-01-19T10:56:39;12.43;;;1.40;;
30127;SDS011;16942;53.196;6.592;2023-01-19T10:59:26;10.10;;;1.00;;
30127;SDS011;16942;53.196;6.592;2023-01-19T11:02:01;11.57;;;1.73;;
30127;SDS011;16942;53.196;6.592;2023-01-19T11:04:28;9.73;;;1.57;;
30127;SDS011;16942;53.196;6.592;2023-01-19T11:07:11;6.33;;;1.23;;
30127;SDS011;16942;53.196;6.592;2023-01-19T11:09:37;11.67;;;1.50;;
30127;SDS011;16942;53.196;6.592;2023-01-19T11:12:03;18.90;;;1.87;;
30127;SDS011;16942;53.196;6.592;2023-01-19T11:14:30;6.87;;;1.40;;
30127;SDS011;16942;53.196;6.592;2023-01-19T11:16:56;12.77;;;1.37;;
30127;SDS011;16942;53.196;6.592;2023-01-19T11:19:27;8.50;;;1.60;;
30127;SDS011;16942;53.196;6.592;2023-01-19T11:22:06;7.90;;;1.60;;
30127;SDS011;16942;53.196;6.592;2023-01-19T11:24:34;11.30;;;1.50;;
30127;SDS011;16942;53.196;6.592;2023-01-19T11:27:01;12.47;;;1.50;;
30127;SDS011;16942;53.196;6.592;2023-01-19T11:29:27;7.23;;;2.30;;
30127;SDS011;16942;53.196;6.592;2023-01-19T11:31:53;14.30;;;2.40;;
30127;SDS011;16942;53.196;6.592;2023-01-19T11:36:55;6.07;;;1.43;;
30127;SDS011;16942;53.196;6.592;2023-01-19T11:39:23;10.47;;;1.13;;
30127;SDS011;16942;53.196;6.592;2023-01-19T11:41:50;11.17;;;1.83;;
30127;SDS011;16942;53.196;6.592;2023-01-19T11:44:19;9.87;;;1.70;;
30127;SDS011;16942;53.196;6.592;2023-01-19T11:46:47;13.17;;;1.50;;
30127;SDS011;16942;53.196;6.592;2023-01-19T11:49:18;12.73;;;1.23;;
30127;SDS011;16942;53.196;6.592;2023-01-19T11:52:03;4.33;;;1.20;;
30127;SDS011;16942;53.196;6.592;2023-01-19T11:54:38;12.20;;;1.37;;
30127;SDS011;16942;53.196;6.592;2023-01-19T11:57:09;10.93;;;1.47;;
30127;SDS011;16942;53.196;6.592;2023-01-19T11:59:37;10.93;;;1.50;;
30127;SDS011;16942;53.196;6.592;2023-01-19T12:02:03;3.03;;;1.03;;
30127;SDS011;16942;53.196;6.592;2023-01-19T12:04:36;9.77;;;1.40;;
30127;SDS011;16942;53.196;6.592;2023-01-19T12:07:04;3.73;;;1.23;;
30127;SDS011;16942;53.196;6.592;2023-01-19T12:09:33;3.90;;;1.00;;
30127;SDS011;16942;53.196;6.592;2023-01-19T12:16:56;5.27;;;1.00;;
30127;SDS011;16942;53.196;6.592;2023-01-19T12:19:24;5.20;;;1.00;;
30127;SDS011;16942;53.196;6.592;2023-01-19T12:21:52;6.80;;;1.03;;
30127;SDS011;16942;53.196;6.592;2023-01-19T12:24:33;7.63;;;1.10;;
30127;SDS011;16942;53.196;6.592;2023-01-19T12:27:04;7.47;;;1.17;;
30127;SDS011;16942;53.196;6.592;2023-01-19T12:29:32;3.80;;;0.90;;
30127;SDS011;16942;53.196;6.592;2023-01-19T12:34:42;4.63;;;0.80;;
30127;SDS011;16942;53.196;6.592;2023-01-19T12:39:53;5.77;;;1.43;;
30127;SDS011;16942;53.196;6.592;2023-01-19T12:42:20;4.67;;;1.27;;
30127;SDS011;16942;53.196;6.592;2023-01-19T12:44:47;2.37;;;1.07;;
30127;SDS011;16942;53.196;6.592;2023-01-19T12:49:40;11.60;;;2.17;;
30127;SDS011;16942;53.196;6.592;2023-01-19T12:54:54;4.50;;;1.00;;
30127;SDS011;16942;53.196;6.592;2023-01-19T13:00:07;2.30;;;0.70;;
30127;SDS011;16942;53.196;6.592;2023-01-19T13:02:55;1.83;;;0.77;;
30127;SDS011;16942;53.196;6.592;2023-01-19T13:15:48;5.33;;;1.00;;
30127;SDS011;16942;53.196;6.592;2023-01-19T13:18:37;3.47;;;0.90;;
30127;SDS011;16942;53.196;6.592;2023-01-19T13:21:02;5.17;;;0.90;;
30127;SDS011;16942;53.196;6.592;2023-01-19T13:26:09;5.97;;;1.00;;
30127;SDS011;16942;53.196;6.592;2023-01-19T13:28:42;6.77;;;1.03;;
30127;SDS011;16942;53.196;6.592;2023-01-19T13:31:09;5.60;;;0.80;;
30127;SDS011;16942;53.196;6.592;2023-01-19T13:33:37;7.10;;;1.00;;
30127;SDS011;16942;53.196;6.592;2023-01-19T13:36:04;7.30;;;0.87;;
30127;SDS011;16942;53.196;6.592;2023-01-19T13:38:39;2.60;;;0.80;;
30127;SDS011;16942;53.196;6.592;2023-01-19T13:41:06;7.03;;;1.20;;
30127;SDS011;16942;53.196;6.592;2023-01-19T13:43:33;3.57;;;0.60;;
30127;SDS011;16942;53.196;6.592;2023-01-19T13:46:01;4.30;;;1.00;;
30127;SDS011;16942;53.196;6.592;2023-01-19T13:48:28;8.77;;;1.00;;
30127;SDS011;16942;53.196;6.592;2023-01-19T13:50:57;5.23;;;0.77;;
30127;SDS011;16942;53.196;6.592;2023-01-19T13:53:23;4.17;;;0.90;;
30127;SDS011;16942;53.196;6.592;2023-01-19T13:58:30;6.90;;;0.87;;
30127;SDS011;16942;53.196;6.592;2023-01-19T14:00:56;8.63;;;1.10;;
30127;SDS011;16942;53.196;6.592;2023-01-19T14:03:23;8.03;;;0.93;;
30127;SDS011;16942;53.196;6.592;2023-01-19T14:05:50;9.47;;;1.33;;
30127;SDS011;16942;53.196;6.592;2023-01-19T14:08:16;4.63;;;1.50;;
30127;SDS011;16942;53.196;6.592;2023-01-19T14:10:58;9.23;;;1.77;;
30127;SDS011;16942;53.196;6.592;2023-01-19T14:13:35;3.80;;;1.07;;
30127;SDS011;16942;53.196;6.592;2023-01-19T14:16:15;11.87;;;1.00;;
30127;SDS011;16942;53.196;6.592;2023-01-19T14:18:41;4.90;;;1.53;;
30127;SDS011;16942;53.196;6.592;2023-01-19T14:21:08;7.27;;;1.20;;
30127;SDS011;16942;53.196;6.592;2023-01-19T14:26:05;9.73;;;1.20;;
30127;SDS011;16942;53.196;6.592;2023-01-19T14:28:35;5.07;;;0.77;;
30127;SDS011;16942;53.196;6.592;2023-01-19T14:31:23;7.80;;;0.80;;
30127;SDS011;16942;53.196;6.592;2023-01-19T14:33:52;5.50;;;0.60;;
30127;SDS011;16942;53.196;6.592;2023-01-19T14:38:55;5.63;;;0.90;;
30127;SDS011;16942;53.196;6.592;2023-01-19T14:41:42;7.47;;;1.27;;
30127;SDS011;16942;53.196;6.592;2023-01-19T14:44:15;3.30;;;1.07;;
30127;SDS011;16942;53.196;6.592;2023-01-19T14:46:44;5.23;;;0.80;;
30127;SDS011;16942;53.196;6.592;2023-01-19T14:49:23;2.20;;;0.90;;
30127;SDS011;16942;53.196;6.592;2023-01-19T14:51:53;6.40;;;0.83;;
30127;SDS011;16942;53.196;6.592;2023-01-19T14:54:24;2.17;;;0.77;;
30127;SDS011;16942;53.196;6.592;2023-01-19T14:56:52;3.70;;;0.87;;
30127;SDS011;16942;53.196;6.592;2023-01-19T14:59:18;5.00;;;0.90;;
30127;SDS011;16942;53.196;6.592;2023-01-19T15:01:44;5.10;;;0.87;;
30127;SDS011;16942;53.196;6.592;2023-01-19T15:04:10;6.73;;;0.90;;
30127;SDS011;16942;53.196;6.592;2023-01-19T15:06:38;3.63;;;0.97;;
30127;SDS011;16942;53.196;6.592;2023-01-19T15:09:05;4.37;;;0.80;;
30127;SDS011;16942;53.196;6.592;2023-01-19T15:11:34;3.23;;;1.17;;
30127;SDS011;16942;53.196;6.592;2023-01-19T15:14:00;5.70;;;1.20;;
30127;SDS011;16942;53.196;6.592;2023-01-19T15:16:26;2.07;;;1.00;;
30127;SDS011;16942;53.196;6.592;2023-01-19T15:18:53;5.17;;;1.27;;
30127;SDS011;16942;53.196;6.592;2023-01-19T15:21:19;3.90;;;1.20;;
30127;SDS011;16942;53.196;6.592;2023-01-19T15:23:50;4.53;;;1.00;;
30127;SDS011;16942;53.196;6.592;2023-01-19T15:26:18;5.73;;;0.90;;
30127;SDS011;16942;53.196;6.592;2023-01-19T15:28:44;4.50;;;1.37;;
30127;SDS011;16942;53.196;6.592;2023-01-19T15:31:16;6.30;;;1.50;;
30127;SDS011;16942;53.196;6.592;2023-01-19T15:33:43;8.47;;;2.07;;
30127;SDS011;16942;53.196;6.592;2023-01-19T15:36:12;4.60;;;1.50;;
30127;SDS011;16942;53.196;6.592;2023-01-19T15:38:38;8.53;;;1.80;;
30127;SDS011;16942;53.196;6.592;2023-01-19T15:41:09;4.57;;;1.23;;
30127;SDS011;16942;53.196;6.592;2023-01-19T15:43:36;6.67;;;1.50;;
30127;SDS011;16942;53.196;6.592;2023-01-19T15:46:02;3.73;;;1.20;;
30127;SDS011;16942;53.196;6.592;2023-01-19T15:48:30;3.83;;;1.27;;
30127;SDS011;16942;53.196;6.592;2023-01-19T15:50:56;2.93;;;1.40;;
30127;SDS011;16942;53.196;6.592;2023-01-19T15:53:22;4.03;;;1.50;;
30127;SDS011;16942;53.196;6.592;2023-01-19T15:55:49;6.03;;;1.70;;
30127;SDS011;16942;53.196;6.592;2023-01-19T15:58:15;5.87;;;1.97;;
30127;SDS011;16942;53.196;6.592;2023-01-19T16:00:42;7.60;;;2.37;;